createdAt,value
2023-01-29T00:04:47.828Z,63.53
2023-01-29T00:09:49.343Z,65.82
2023-01-29T00:14:50.771Z,62.03
2023-01-29T00:19:52.244Z,60.58
2023-01-29T00:24:54.071Z,63.38
2023-01-29T00:29:55.521Z,62.88
2023-01-29T00:34:57.345Z,53.33
2023-01-29T00:39:58.954Z,60.63
2023-01-29T00:45:00.711Z,55.13
2023-01-29T00:50:08.410Z,55.55
2023-01-29T00:55:10.987Z,55.17
2023-01-29T01:00:15.122Z,50.10
2023-01-29T01:05:18.412Z,50.70
2023-01-29T01:10:23.177Z,42.58
2023-01-29T01:15:28.149Z,39.13
2023-01-29T01:20:32.106Z,38.47
2023-01-29T01:25:33.996Z,36.38
2023-01-29T01:30:35.795Z,40.13
2023-01-29T01:35:39.463Z,34.33
2023-01-29T01:40:45.158Z,38.30
2023-01-29T01:45:46.746Z,38.65
2023-01-29T01:50:56.179Z,35.22
2023-01-29T01:56:03.471Z,39.83
2023-01-29T02:01:08.031Z,37.05
2023-01-29T02:06:10.573Z,37.08
2023-01-29T02:11:12.477Z,39.72
2023-01-29T02:16:13.919Z,34.10
2023-01-29T02:21:32.171Z,36.08
2023-01-29T02:26:49.457Z,32.00
2023-01-29T02:32:03.908Z,37.17
2023-01-29T02:37:12.024Z,36.42
2023-01-29T02:42:38.812Z,33.30
2023-01-29T02:47:48.208Z,35.00
2023-01-29T02:52:54.645Z,34.90
2023-01-29T02:58:05.407Z,36.65
2023-01-29T03:03:18.721Z,32.70
2023-01-29T03:14:34.242Z,32.10
2023-01-29T03:19:41.374Z,34.30
2023-01-29T03:25:01.561Z,42.47
2023-01-29T03:35:09.935Z,34.88
2023-01-29T03:40:12.088Z,38.75
2023-01-29T03:45:35.229Z,34.78
2023-01-29T03:50:55.163Z,36.70
2023-01-29T03:56:09.055Z,38.95
2023-01-29T04:01:25.742Z,36.13
2023-01-29T04:06:34.404Z,34.75
2023-01-29T04:11:39.896Z,40.38
2023-01-29T04:16:48.164Z,38.00
2023-01-29T04:21:53.090Z,42.85
2023-01-29T04:27:19.328Z,42.80
2023-01-29T04:32:31.874Z,38.85
2023-01-29T04:37:35.885Z,40.53
2023-01-29T04:42:47.794Z,33.92
2023-01-29T04:48:10.738Z,37.65
2023-01-29T04:53:26.622Z,38.42
2023-01-29T04:58:47.507Z,39.85
2023-01-29T05:03:52.119Z,41.75
2023-01-29T05:08:54.735Z,43.25
2023-01-29T05:13:57.018Z,40.97
2023-01-29T05:18:58.610Z,40.05
2023-01-29T05:24:07.532Z,40.55
2023-01-29T05:29:09.172Z,42.05
2023-01-29T05:34:10.611Z,43.47
2023-01-29T05:39:12.556Z,48.70
2023-01-29T05:44:14.034Z,38.08
2023-01-29T05:49:17.345Z,40.78
2023-01-29T05:54:19.628Z,44.65
2023-01-29T05:59:21.358Z,36.85
2023-01-29T06:04:22.864Z,39.33
2023-01-29T06:09:24.333Z,43.03
2023-01-29T06:14:26.050Z,37.55
2023-01-29T06:19:27.511Z,44.22
2023-01-29T06:24:28.930Z,37.58
2023-01-29T06:29:30.381Z,40.63
2023-01-29T06:34:31.757Z,40.50
2023-01-29T06:39:33.748Z,47.28
2023-01-29T06:44:35.325Z,41.08
2023-01-29T06:49:36.695Z,37.45
2023-01-29T06:54:38.114Z,37.65
2023-01-29T06:59:39.520Z,38.03
2023-01-29T07:04:40.977Z,47.72
2023-01-29T07:15:39.614Z,40.93
2023-01-29T07:20:42.800Z,40.95
2023-01-29T07:25:46.652Z,42.15
2023-01-29T07:30:48.142Z,42.08
2023-01-29T07:35:52.949Z,39.05
2023-01-29T07:40:54.702Z,40.03
2023-01-29T07:45:56.201Z,43.55
2023-01-29T07:50:58.067Z,41.70
2023-01-29T07:55:59.918Z,43.47
2023-01-29T08:01:05.635Z,46.95
2023-01-29T08:06:07.568Z,52.00
2023-01-29T08:11:08.955Z,50.35
2023-01-29T08:16:10.621Z,45.78
2023-01-29T08:21:13.761Z,48.47
2023-01-29T08:26:15.468Z,48.00
2023-01-29T08:31:18.169Z,43.65
2023-01-29T08:36:19.555Z,52.05
2023-01-29T08:41:20.903Z,57.78
2023-01-29T08:46:24.002Z,48.90
2023-01-29T08:51:25.929Z,53.97
2023-01-29T08:56:27.395Z,47.53
2023-01-29T09:01:28.849Z,48.05
2023-01-29T09:06:30.465Z,45.97
2023-01-29T09:11:31.975Z,50.95
2023-01-29T09:16:33.438Z,48.97
2023-01-29T09:21:34.845Z,50.33
2023-01-29T09:26:36.288Z,50.80
2023-01-29T09:31:37.803Z,50.17
2023-01-29T09:36:39.541Z,52.58
2023-01-29T09:41:54.832Z,45.15
2023-01-29T09:46:56.880Z,56.53
2023-01-29T09:52:17.957Z,55.53
2023-01-29T09:57:25.632Z,44.65
2023-01-29T10:02:56.188Z,50.35
2023-01-29T10:08:18.246Z,49.13
2023-01-29T10:31:38.732Z,51.20
2023-01-29T10:36:44.666Z,56.70
2023-01-29T10:42:13.861Z,53.67
2023-01-29T10:47:33.996Z,50.88
2023-01-29T10:57:56.149Z,48.38
2023-01-29T11:02:57.760Z,55.47
2023-01-29T11:08:23.818Z,53.92
2023-01-29T11:13:32.521Z,50.50
2023-01-29T11:18:54.566Z,50.92
2023-01-29T11:24:10.949Z,46.60
2023-01-29T11:29:42.467Z,57.58
2023-01-29T11:35:03.959Z,47.38
2023-01-29T11:40:37.493Z,51.97
2023-01-29T11:45:40.089Z,52.13
2023-01-29T11:50:41.739Z,47.95
2023-01-29T11:55:50.934Z,49.60
2023-01-29T12:00:53.789Z,50.30
2023-01-29T12:06:08.339Z,46.10
2023-01-29T12:11:12.097Z,52.10
2023-01-29T12:16:45.547Z,45.70
2023-01-29T12:21:53.767Z,47.90
2023-01-29T12:27:05.054Z,50.05
2023-01-29T12:32:20.359Z,50.58
2023-01-29T12:37:38.001Z,48.90
2023-01-29T12:42:44.421Z,52.10
2023-01-29T12:47:54.267Z,44.17
2023-01-29T12:53:20.935Z,46.75
2023-01-29T12:58:30.263Z,47.60
2023-01-29T13:03:49.023Z,40.67
2023-01-29T13:09:05.918Z,45.70
2023-01-29T13:14:13.268Z,45.03
2023-01-29T13:19:25.178Z,44.63
2023-01-29T13:24:35.468Z,42.78
2023-01-29T13:29:37.786Z,42.70
2023-01-29T13:34:46.964Z,41.20
2023-01-29T13:39:52.208Z,41.90
2023-01-29T13:45:01.611Z,43.42
2023-01-29T13:50:09.187Z,46.70
2023-01-29T13:55:13.650Z,40.17
2023-01-29T14:00:22.203Z,37.80
2023-01-29T14:05:29.719Z,40.88
2023-01-29T14:10:33.767Z,40.03
2023-01-29T14:15:36.495Z,43.38
2023-01-29T14:20:48.823Z,43.13
2023-01-29T14:25:50.680Z,42.20
2023-01-29T14:30:52.693Z,38.25
2023-01-29T14:35:59.599Z,44.05
2023-01-29T14:41:17.197Z,40.22
2023-01-29T14:46:33.797Z,41.63
2023-01-29T14:51:38.660Z,46.75
2023-01-29T14:56:59.535Z,39.85
2023-01-29T15:02:14.540Z,49.22
2023-01-29T15:07:23.428Z,42.20
2023-01-29T15:12:46.642Z,40.67
2023-01-29T15:18:12.981Z,44.72
2023-01-29T15:23:35.538Z,29.42
2023-01-29T15:28:38.575Z,31.73
2023-01-29T15:33:44.803Z,32.40
2023-01-29T15:38:46.322Z,25.52
2023-01-29T15:43:58.611Z,21.42
2023-01-29T15:49:05.883Z,17.30
2023-01-29T15:54:15.437Z,11.98
2023-01-29T15:59:22.043Z,13.63
2023-01-29T16:04:27.031Z,13.07
2023-01-29T16:09:29.690Z,13.60
2023-01-29T16:14:31.590Z,12.00
2023-01-29T16:19:33.186Z,12.65
2023-01-29T16:24:37.092Z,16.55
2023-01-29T16:29:38.612Z,12.23
2023-01-29T16:34:45.343Z,11.75
2023-01-29T16:39:49.554Z,13.38
2023-01-29T16:50:06.049Z,16.58
2023-01-29T16:55:13.214Z,13.20
2023-01-29T17:00:26.559Z,14.10
2023-01-29T17:05:31.586Z,17.17
2023-01-29T17:10:33.978Z,15.60
2023-01-29T17:15:41.306Z,15.27
2023-01-29T17:20:42.868Z,18.08
2023-01-29T17:25:45.655Z,16.30
2023-01-29T17:31:00.272Z,14.98
2023-01-29T17:36:11.594Z,18.48
2023-01-29T17:41:26.807Z,14.35
2023-01-29T17:46:28.201Z,17.42
2023-01-29T17:51:29.717Z,16.92
2023-01-29T17:56:31.152Z,18.38
2023-01-29T18:01:32.574Z,19.00
2023-01-29T18:06:34.050Z,17.27
2023-01-29T18:11:35.445Z,21.98
2023-01-29T18:16:37.283Z,22.40
2023-01-29T18:21:38.726Z,21.98
2023-01-29T18:26:40.763Z,20.30
2023-01-29T18:31:42.550Z,21.48
2023-01-29T18:36:44.098Z,21.73
2023-01-29T18:41:45.599Z,21.02
2023-01-29T18:46:47.074Z,24.35
2023-01-29T18:51:48.417Z,25.10
2023-01-29T18:57:13.216Z,21.60
2023-01-29T19:02:16.036Z,21.92
2023-01-29T19:07:17.429Z,25.00
2023-01-29T19:12:18.887Z,19.15
2023-01-29T19:17:20.368Z,20.65
2023-01-29T19:22:21.932Z,22.52
2023-01-29T19:27:26.782Z,24.40
2023-01-29T19:32:28.647Z,26.15
2023-01-29T19:37:30.201Z,23.10
2023-01-29T19:42:31.563Z,25.20
2023-01-29T19:47:37.830Z,28.98
2023-01-29T19:52:50.746Z,22.85
2023-01-29T19:57:53.277Z,20.95
2023-01-29T20:02:55.154Z,25.30
2023-01-29T20:07:56.567Z,29.02
2023-01-29T20:12:57.975Z,28.38
2023-01-29T20:17:59.396Z,24.90
2023-01-29T20:23:00.779Z,24.55
2023-01-29T20:28:02.175Z,26.10
2023-01-29T20:33:04.749Z,28.98
2023-01-29T20:38:06.252Z,27.13
2023-01-29T20:43:07.597Z,31.48
2023-01-29T20:48:09.186Z,31.00
2023-01-29T20:53:11.346Z,27.20
2023-01-29T20:58:13.015Z,26.05
2023-01-29T21:03:14.469Z,30.98
2023-01-29T21:08:15.915Z,27.92
2023-01-29T21:13:17.448Z,21.30
2023-01-29T21:18:19.014Z,30.65
2023-01-29T21:23:21.201Z,26.33
2023-01-29T21:28:22.772Z,33.88
2023-01-29T21:33:24.171Z,24.80
2023-01-29T21:38:25.714Z,26.35
2023-01-29T21:43:27.484Z,27.42
2023-01-29T21:48:28.943Z,28.50
2023-01-29T21:53:30.507Z,26.60
2023-01-29T21:58:32.233Z,24.63
2023-01-29T22:03:33.707Z,24.85
2023-01-29T22:08:35.168Z,24.90
2023-01-29T22:13:37.015Z,20.88
2023-01-29T22:18:38.370Z,22.95
2023-01-29T22:23:39.739Z,22.70
2023-01-29T22:28:41.132Z,24.98
2023-01-29T22:33:45.995Z,25.50
2023-01-29T22:38:47.430Z,24.48
2023-01-29T22:43:48.826Z,22.02
2023-01-29T22:48:50.234Z,27.23
2023-01-29T22:53:54.397Z,23.58
2023-01-29T22:59:00.911Z,26.17
2023-01-29T23:04:02.554Z,23.08
2023-01-29T23:09:03.985Z,22.25
2023-01-29T23:14:05.693Z,26.52
2023-01-29T23:19:07.315Z,21.17
2023-01-29T23:24:09.367Z,33.05
2023-01-29T23:29:12.523Z,23.73
2023-01-29T23:34:14.584Z,23.65
2023-01-29T23:39:16.033Z,22.23
2023-01-29T23:44:17.376Z,21.88
2023-01-29T23:49:18.983Z,22.13
2023-01-29T23:54:20.551Z,22.42
2023-01-29T23:59:22.196Z,20.83
